Terminal Aerodrome Forecast
Issued by NWS

Home | Current Version | Previous Version | Graphics & Text | Print | Product List | Glossary On
Versions: 1 2 3 4 5 6 7 8 9 10 11 12 13 14
000
FTUS43 KGRB 012339
TAFATW
TAF
KATW 012339Z 0200/0224 25008KT P6SM SCT120
      TEMPO 0205/0209 BKN120
     FM021000 22009KT P6SM SCT060 OVC100
      TEMPO 0210/0214 5SM -TSRA BR BKN050CB
     FM021500 24014G22KT P6SM SCT035 SCT100
     FM022200 28012G18KT P6SM SCT040 BKN100
      TEMPO 0222/0224 3SM TSRA BR BKN035CB=

USA.gov is the U.S. government's official web portal to all federal, state and local government web resources and services.